sensor_id;sensor_type;location;lat;lon;timestamp;P1;durP1;ratioP1;P2;durP2;ratioP2
37087;SDS011;23002;52.676;6.432;2023-11-22T00:01:10;18.60;;;9.10;;
37087;SDS011;23002;52.676;6.432;2023-11-22T00:03:37;17.63;;;9.68;;
37087;SDS011;23002;52.676;6.432;2023-11-22T00:06:05;20.95;;;8.57;;
37087;SDS011;23002;52.676;6.432;2023-11-22T00:08:33;20.33;;;9.25;;
37087;SDS011;23002;52.676;6.432;2023-11-22T00:11:00;16.17;;;8.15;;
37087;SDS011;23002;52.676;6.432;2023-11-22T00:13:27;17.63;;;8.73;;
37087;SDS011;23002;52.676;6.432;2023-11-22T00:15:55;18.17;;;8.40;;
37087;SDS011;23002;52.676;6.432;2023-11-22T00:18:23;18.23;;;7.72;;
37087;SDS011;23002;52.676;6.432;2023-11-22T00:20:52;15.40;;;8.05;;
37087;SDS011;23002;52.676;6.432;2023-11-22T00:23:21;17.30;;;7.40;;
37087;SDS011;23002;52.676;6.432;2023-11-22T00:25:53;20.27;;;7.47;;
37087;SDS011;23002;52.676;6.432;2023-11-22T00:28:20;18.45;;;8.00;;
37087;SDS011;23002;52.676;6.432;2023-11-22T00:30:48;20.58;;;7.60;;
37087;SDS011;23002;52.676;6.432;2023-11-22T00:33:16;17.90;;;7.75;;
37087;SDS011;23002;52.676;6.432;2023-11-22T00:35:45;15.60;;;7.47;;
37087;SDS011;23002;52.676;6.432;2023-11-22T00:38:12;16.05;;;7.72;;
37087;SDS011;23002;52.676;6.432;2023-11-22T00:40:39;19.63;;;8.25;;
37087;SDS011;23002;52.676;6.432;2023-11-22T00:43:07;16.92;;;7.20;;
37087;SDS011;23002;52.676;6.432;2023-11-22T00:45:34;14.75;;;7.22;;
37087;SDS011;23002;52.676;6.432;2023-11-22T00:48:01;16.67;;;7.35;;
37087;SDS011;23002;52.676;6.432;2023-11-22T00:50:29;16.38;;;7.10;;
37087;SDS011;23002;52.676;6.432;2023-11-22T00:52:56;17.35;;;6.97;;
37087;SDS011;23002;52.676;6.432;2023-11-22T00:55:23;14.10;;;7.05;;
37087;SDS011;23002;52.676;6.432;2023-11-22T00:57:50;17.48;;;7.63;;
37087;SDS011;23002;52.676;6.432;2023-11-22T01:00:17;16.88;;;7.38;;
37087;SDS011;23002;52.676;6.432;2023-11-22T01:02:44;15.52;;;7.10;;
37087;SDS011;23002;52.676;6.432;2023-11-22T01:05:12;16.13;;;7.60;;
37087;SDS011;23002;52.676;6.432;2023-11-22T01:07:40;18.00;;;7.75;;
37087;SDS011;23002;52.676;6.432;2023-11-22T01:10:07;19.30;;;7.15;;
37087;SDS011;23002;52.676;6.432;2023-11-22T01:12:35;16.90;;;7.05;;
37087;SDS011;23002;52.676;6.432;2023-11-22T01:15:02;17.95;;;7.63;;
37087;SDS011;23002;52.676;6.432;2023-11-22T01:17:29;19.15;;;7.05;;
37087;SDS011;23002;52.676;6.432;2023-11-22T01:19:59;17.23;;;6.97;;
37087;SDS011;23002;52.676;6.432;2023-11-22T01:22:26;16.13;;;7.70;;
37087;SDS011;23002;52.676;6.432;2023-11-22T01:24:53;19.67;;;7.50;;
37087;SDS011;23002;52.676;6.432;2023-11-22T01:27:20;17.92;;;7.88;;
37087;SDS011;23002;52.676;6.432;2023-11-22T01:29:48;18.77;;;8.13;;
37087;SDS011;23002;52.676;6.432;2023-11-22T01:32:15;20.92;;;8.23;;
37087;SDS011;23002;52.676;6.432;2023-11-22T01:34:43;21.98;;;7.68;;
37087;SDS011;23002;52.676;6.432;2023-11-22T01:37:10;16.95;;;7.72;;
37087;SDS011;23002;52.676;6.432;2023-11-22T01:39:41;17.63;;;7.13;;
37087;SDS011;23002;52.676;6.432;2023-11-22T01:42:09;16.08;;;7.90;;
37087;SDS011;23002;52.676;6.432;2023-11-22T01:44:36;16.92;;;6.85;;
37087;SDS011;23002;52.676;6.432;2023-11-22T01:47:04;17.90;;;7.68;;
37087;SDS011;23002;52.676;6.432;2023-11-22T01:49:31;20.27;;;7.72;;
37087;SDS011;23002;52.676;6.432;2023-11-22T01:51:59;18.83;;;7.55;;
37087;SDS011;23002;52.676;6.432;2023-11-22T01:54:26;19.48;;;7.95;;
37087;SDS011;23002;52.676;6.432;2023-11-22T01:56:55;22.88;;;8.02;;
37087;SDS011;23002;52.676;6.432;2023-11-22T01:59:22;23.10;;;8.35;;
37087;SDS011;23002;52.676;6.432;2023-11-22T02:01:52;18.63;;;7.55;;
37087;SDS011;23002;52.676;6.432;2023-11-22T02:04:20;20.35;;;7.90;;
37087;SDS011;23002;52.676;6.432;2023-11-22T02:06:48;17.65;;;8.23;;
37087;SDS011;23002;52.676;6.432;2023-11-22T02:09:16;21.50;;;7.40;;
37087;SDS011;23002;52.676;6.432;2023-11-22T02:11:44;18.73;;;7.50;;
37087;SDS011;23002;52.676;6.432;2023-11-22T02:14:15;14.60;;;6.68;;
37087;SDS011;23002;52.676;6.432;2023-11-22T02:16:42;16.02;;;7.40;;
37087;SDS011;23002;52.676;6.432;2023-11-22T02:19:16;21.63;;;7.63;;
37087;SDS011;23002;52.676;6.432;2023-11-22T02:21:43;17.08;;;6.90;;
37087;SDS011;23002;52.676;6.432;2023-11-22T02:24:11;19.40;;;7.53;;
37087;SDS011;23002;52.676;6.432;2023-11-22T02:26:43;16.75;;;6.78;;
37087;SDS011;23002;52.676;6.432;2023-11-22T02:29:10;22.27;;;7.75;;
37087;SDS011;23002;52.676;6.432;2023-11-22T02:31:41;16.85;;;6.78;;
37087;SDS011;23002;52.676;6.432;2023-11-22T02:34:11;18.60;;;8.02;;
37087;SDS011;23002;52.676;6.432;2023-11-22T02:36:38;19.48;;;8.05;;
37087;SDS011;23002;52.676;6.432;2023-11-22T02:39:07;28.50;;;7.93;;
37087;SDS011;23002;52.676;6.432;2023-11-22T02:41:35;23.83;;;8.73;;
37087;SDS011;23002;52.676;6.432;2023-11-22T02:44:02;27.58;;;8.57;;
37087;SDS011;23002;52.676;6.432;2023-11-22T02:46:29;20.13;;;7.70;;
37087;SDS011;23002;52.676;6.432;2023-11-22T02:48:57;22.33;;;8.68;;
37087;SDS011;23002;52.676;6.432;2023-11-22T02:51:25;19.05;;;8.40;;
37087;SDS011;23002;52.676;6.432;2023-11-22T02:53:53;25.05;;;8.80;;
37087;SDS011;23002;52.676;6.432;2023-11-22T02:56:20;19.33;;;7.40;;
37087;SDS011;23002;52.676;6.432;2023-11-22T02:58:47;23.42;;;7.85;;
37087;SDS011;23002;52.676;6.432;2023-11-22T03:01:15;21.73;;;8.35;;
37087;SDS011;23002;52.676;6.432;2023-11-22T03:03:42;22.30;;;8.43;;
37087;SDS011;23002;52.676;6.432;2023-11-22T03:06:10;20.05;;;8.70;;
37087;SDS011;23002;52.676;6.432;2023-11-22T03:08:37;22.50;;;8.25;;
37087;SDS011;23002;52.676;6.432;2023-11-22T03:11:04;23.80;;;8.50;;
37087;SDS011;23002;52.676;6.432;2023-11-22T03:13:31;24.40;;;8.32;;
37087;SDS011;23002;52.676;6.432;2023-11-22T03:15:59;21.83;;;8.20;;
37087;SDS011;23002;52.676;6.432;2023-11-22T03:18:26;21.65;;;8.88;;
37087;SDS011;23002;52.676;6.432;2023-11-22T03:20:53;19.02;;;7.85;;
37087;SDS011;23002;52.676;6.432;2023-11-22T03:23:21;23.27;;;7.88;;
37087;SDS011;23002;52.676;6.432;2023-11-22T03:25:48;18.30;;;7.57;;
37087;SDS011;23002;52.676;6.432;2023-11-22T03:28:15;19.80;;;8.68;;
37087;SDS011;23002;52.676;6.432;2023-11-22T03:30:42;24.95;;;8.57;;
37087;SDS011;23002;52.676;6.432;2023-11-22T03:33:09;20.67;;;7.80;;
37087;SDS011;23002;52.676;6.432;2023-11-22T03:35:37;22.23;;;7.50;;
37087;SDS011;23002;52.676;6.432;2023-11-22T03:38:04;20.95;;;8.38;;
37087;SDS011;23002;52.676;6.432;2023-11-22T03:40:31;17.92;;;7.57;;
37087;SDS011;23002;52.676;6.432;2023-11-22T03:42:58;22.73;;;8.75;;
37087;SDS011;23002;52.676;6.432;2023-11-22T03:45:25;17.88;;;7.45;;
37087;SDS011;23002;52.676;6.432;2023-11-22T03:47:53;25.05;;;8.68;;
37087;SDS011;23002;52.676;6.432;2023-11-22T03:50:20;19.58;;;7.45;;
37087;SDS011;23002;52.676;6.432;2023-11-22T03:52:47;18.67;;;7.90;;
37087;SDS011;23002;52.676;6.432;2023-11-22T03:55:15;22.60;;;8.18;;
37087;SDS011;23002;52.676;6.432;2023-11-22T03:57:42;20.88;;;7.70;;
37087;SDS011;23002;52.676;6.432;2023-11-22T04:00:10;23.55;;;8.50;;
37087;SDS011;23002;52.676;6.432;2023-11-22T04:02:38;22.02;;;8.02;;
37087;SDS011;23002;52.676;6.432;2023-11-22T04:05:06;18.90;;;7.65;;
37087;SDS011;23002;52.676;6.432;2023-11-22T04:07:33;22.83;;;7.25;;
37087;SDS011;23002;52.676;6.432;2023-11-22T04:10:00;22.02;;;7.63;;
37087;SDS011;23002;52.676;6.432;2023-11-22T04:12:28;22.65;;;8.20;;
37087;SDS011;23002;52.676;6.432;2023-11-22T04:14:55;20.83;;;8.18;;
37087;SDS011;23002;52.676;6.432;2023-11-22T04:17:22;23.95;;;7.60;;
37087;SDS011;23002;52.676;6.432;2023-11-22T04:19:50;19.35;;;7.57;;
37087;SDS011;23002;52.676;6.432;2023-11-22T04:22:17;20.45;;;8.35;;
37087;SDS011;23002;52.676;6.432;2023-11-22T04:24:44;24.45;;;7.80;;
37087;SDS011;23002;52.676;6.432;2023-11-22T04:27:12;22.88;;;8.23;;
37087;SDS011;23002;52.676;6.432;2023-11-22T04:29:39;20.90;;;7.53;;
37087;SDS011;23002;52.676;6.432;2023-11-22T04:32:06;18.20;;;7.93;;
37087;SDS011;23002;52.676;6.432;2023-11-22T04:34:34;20.83;;;8.30;;
37087;SDS011;23002;52.676;6.432;2023-11-22T04:37:01;22.58;;;7.95;;
37087;SDS011;23002;52.676;6.432;2023-11-22T04:39:29;22.52;;;7.43;;
37087;SDS011;23002;52.676;6.432;2023-11-22T04:41:56;21.92;;;7.90;;
37087;SDS011;23002;52.676;6.432;2023-11-22T04:44:23;19.85;;;7.78;;
37087;SDS011;23002;52.676;6.432;2023-11-22T04:46:50;23.85;;;8.25;;
37087;SDS011;23002;52.676;6.432;2023-11-22T04:49:17;17.75;;;7.65;;
37087;SDS011;23002;52.676;6.432;2023-11-22T04:51:45;20.27;;;7.65;;
37087;SDS011;23002;52.676;6.432;2023-11-22T04:54:12;18.42;;;6.80;;
37087;SDS011;23002;52.676;6.432;2023-11-22T04:56:39;18.55;;;7.88;;
37087;SDS011;23002;52.676;6.432;2023-11-22T04:59:06;21.52;;;8.07;;
37087;SDS011;23002;52.676;6.432;2023-11-22T05:01:34;26.48;;;7.57;;
37087;SDS011;23002;52.676;6.432;2023-11-22T05:04:01;18.38;;;6.35;;
37087;SDS011;23002;52.676;6.432;2023-11-22T05:06:29;29.20;;;8.65;;
37087;SDS011;23002;52.676;6.432;2023-11-22T05:08:56;17.00;;;7.60;;
37087;SDS011;23002;52.676;6.432;2023-11-22T05:11:23;17.65;;;7.63;;
37087;SDS011;23002;52.676;6.432;2023-11-22T05:13:50;23.48;;;7.78;;
37087;SDS011;23002;52.676;6.432;2023-11-22T05:16:17;21.63;;;8.10;;
37087;SDS011;23002;52.676;6.432;2023-11-22T05:18:45;25.33;;;9.85;;
37087;SDS011;23002;52.676;6.432;2023-11-22T05:21:12;27.70;;;9.40;;
37087;SDS011;23002;52.676;6.432;2023-11-22T05:23:39;27.55;;;9.30;;
37087;SDS011;23002;52.676;6.432;2023-11-22T05:26:10;26.02;;;9.73;;
37087;SDS011;23002;52.676;6.432;2023-11-22T05:28:38;24.15;;;8.38;;
37087;SDS011;23002;52.676;6.432;2023-11-22T05:31:05;23.73;;;8.00;;
37087;SDS011;23002;52.676;6.432;2023-11-22T05:33:32;24.92;;;8.40;;
37087;SDS011;23002;52.676;6.432;2023-11-22T05:35:59;23.58;;;8.50;;
37087;SDS011;23002;52.676;6.432;2023-11-22T05:38:26;27.00;;;8.88;;
37087;SDS011;23002;52.676;6.432;2023-11-22T05:40:54;28.13;;;8.90;;
37087;SDS011;23002;52.676;6.432;2023-11-22T05:43:21;27.80;;;9.43;;
37087;SDS011;23002;52.676;6.432;2023-11-22T05:45:53;24.70;;;10.00;;
37087;SDS011;23002;52.676;6.432;2023-11-22T05:48:20;30.75;;;9.00;;
37087;SDS011;23002;52.676;6.432;2023-11-22T05:50:47;24.75;;;9.02;;
37087;SDS011;23002;52.676;6.432;2023-11-22T05:53:15;24.02;;;8.52;;
37087;SDS011;23002;52.676;6.432;2023-11-22T05:55:46;27.15;;;9.50;;
37087;SDS011;23002;52.676;6.432;2023-11-22T05:58:16;25.30;;;7.65;;
37087;SDS011;23002;52.676;6.432;2023-11-22T06:00:47;24.25;;;8.93;;
37087;SDS011;23002;52.676;6.432;2023-11-22T06:03:14;26.35;;;9.20;;
37087;SDS011;23002;52.676;6.432;2023-11-22T06:05:41;24.70;;;8.65;;
37087;SDS011;23002;52.676;6.432;2023-11-22T06:08:09;23.15;;;8.48;;
37087;SDS011;23002;52.676;6.432;2023-11-22T06:10:36;26.55;;;8.68;;
37087;SDS011;23002;52.676;6.432;2023-11-22T06:13:07;24.85;;;8.93;;
37087;SDS011;23002;52.676;6.432;2023-11-22T06:15:36;26.20;;;8.73;;
37087;SDS011;23002;52.676;6.432;2023-11-22T06:18:03;22.42;;;8.63;;
37087;SDS011;23002;52.676;6.432;2023-11-22T06:20:30;27.33;;;8.93;;
37087;SDS011;23002;52.676;6.432;2023-11-22T06:22:57;24.35;;;8.70;;
37087;SDS011;23002;52.676;6.432;2023-11-22T06:25:25;27.85;;;9.02;;
37087;SDS011;23002;52.676;6.432;2023-11-22T06:27:53;24.15;;;8.48;;
37087;SDS011;23002;52.676;6.432;2023-11-22T06:30:20;20.23;;;8.27;;
37087;SDS011;23002;52.676;6.432;2023-11-22T06:32:48;25.98;;;8.82;;
37087;SDS011;23002;52.676;6.432;2023-11-22T06:35:15;28.70;;;9.07;;
37087;SDS011;23002;52.676;6.432;2023-11-22T06:37:44;24.90;;;8.73;;
37087;SDS011;23002;52.676;6.432;2023-11-22T06:40:11;22.83;;;8.57;;
37087;SDS011;23002;52.676;6.432;2023-11-22T06:42:39;28.52;;;8.52;;
37087;SDS011;23002;52.676;6.432;2023-11-22T06:45:07;30.13;;;8.88;;
37087;SDS011;23002;52.676;6.432;2023-11-22T06:47:39;22.45;;;8.95;;
37087;SDS011;23002;52.676;6.432;2023-11-22T06:50:07;23.02;;;9.82;;
37087;SDS011;23002;52.676;6.432;2023-11-22T06:52:37;29.77;;;9.70;;
37087;SDS011;23002;52.676;6.432;2023-11-22T06:55:05;29.42;;;9.73;;
37087;SDS011;23002;52.676;6.432;2023-11-22T06:57:35;25.55;;;10.32;;
37087;SDS011;23002;52.676;6.432;2023-11-22T07:00:03;27.77;;;10.77;;
37087;SDS011;23002;52.676;6.432;2023-11-22T07:02:34;26.83;;;11.25;;
37087;SDS011;23002;52.676;6.432;2023-11-22T07:05:02;32.10;;;11.82;;
37087;SDS011;23002;52.676;6.432;2023-11-22T07:07:29;28.25;;;10.55;;
37087;SDS011;23002;52.676;6.432;2023-11-22T07:09:56;35.80;;;11.43;;
37087;SDS011;23002;52.676;6.432;2023-11-22T07:12:26;31.77;;;10.43;;
37087;SDS011;23002;52.676;6.432;2023-11-22T07:14:53;30.25;;;10.02;;
37087;SDS011;23002;52.676;6.432;2023-11-22T07:17:20;36.00;;;10.35;;
37087;SDS011;23002;52.676;6.432;2023-11-22T07:19:48;30.92;;;9.10;;
37087;SDS011;23002;52.676;6.432;2023-11-22T07:22:17;35.28;;;10.82;;
37087;SDS011;23002;52.676;6.432;2023-11-22T07:24:46;32.17;;;10.57;;
37087;SDS011;23002;52.676;6.432;2023-11-22T07:27:20;39.08;;;10.77;;
37087;SDS011;23002;52.676;6.432;2023-11-22T07:29:48;38.05;;;12.98;;
37087;SDS011;23002;52.676;6.432;2023-11-22T07:32:18;39.15;;;12.48;;
37087;SDS011;23002;52.676;6.432;2023-11-22T07:34:47;40.83;;;12.60;;
37087;SDS011;23002;52.676;6.432;2023-11-22T07:37:14;39.97;;;13.32;;
37087;SDS011;23002;52.676;6.432;2023-11-22T07:39:42;34.85;;;12.02;;
37087;SDS011;23002;52.676;6.432;2023-11-22T07:42:10;44.13;;;12.32;;
37087;SDS011;23002;52.676;6.432;2023-11-22T07:44:37;34.67;;;12.95;;
37087;SDS011;23002;52.676;6.432;2023-11-22T07:47:05;33.42;;;10.35;;
37087;SDS011;23002;52.676;6.432;2023-11-22T07:49:38;32.87;;;11.90;;
37087;SDS011;23002;52.676;6.432;2023-11-22T07:52:05;35.92;;;11.27;;
37087;SDS011;23002;52.676;6.432;2023-11-22T07:54:33;36.67;;;10.88;;
37087;SDS011;23002;52.676;6.432;2023-11-22T07:57:01;34.50;;;11.30;;
37087;SDS011;23002;52.676;6.432;2023-11-22T07:59:29;42.50;;;12.27;;
37087;SDS011;23002;52.676;6.432;2023-11-22T08:01:56;36.22;;;13.32;;
37087;SDS011;23002;52.676;6.432;2023-11-22T08:04:23;40.97;;;13.93;;
37087;SDS011;23002;52.676;6.432;2023-11-22T08:06:51;41.80;;;13.02;;
37087;SDS011;23002;52.676;6.432;2023-11-22T08:09:23;44.05;;;12.95;;
37087;SDS011;23002;52.676;6.432;2023-11-22T08:11:50;34.70;;;12.98;;
37087;SDS011;23002;52.676;6.432;2023-11-22T08:14:19;41.58;;;12.88;;
37087;SDS011;23002;52.676;6.432;2023-11-22T08:16:49;42.47;;;13.75;;
37087;SDS011;23002;52.676;6.432;2023-11-22T08:19:16;41.28;;;13.55;;
37087;SDS011;23002;52.676;6.432;2023-11-22T08:21:43;37.42;;;13.85;;
37087;SDS011;23002;52.676;6.432;2023-11-22T08:24:10;40.53;;;13.15;;
37087;SDS011;23002;52.676;6.432;2023-11-22T08:26:40;37.92;;;13.52;;
37087;SDS011;23002;52.676;6.432;2023-11-22T08:29:08;37.97;;;13.30;;
37087;SDS011;23002;52.676;6.432;2023-11-22T08:31:35;42.90;;;13.23;;
37087;SDS011;23002;52.676;6.432;2023-11-22T08:34:02;40.75;;;14.70;;
37087;SDS011;23002;52.676;6.432;2023-11-22T08:36:33;36.60;;;13.15;;
37087;SDS011;23002;52.676;6.432;2023-11-22T08:39:01;43.17;;;13.65;;
37087;SDS011;23002;52.676;6.432;2023-11-22T08:41:28;39.20;;;13.50;;
37087;SDS011;23002;52.676;6.432;2023-11-22T08:43:56;38.95;;;12.75;;
37087;SDS011;23002;52.676;6.432;2023-11-22T08:46:23;36.70;;;13.25;;
37087;SDS011;23002;52.676;6.432;2023-11-22T08:48:50;35.55;;;14.15;;
37087;SDS011;23002;52.676;6.432;2023-11-22T08:51:18;40.63;;;13.98;;
37087;SDS011;23002;52.676;6.432;2023-11-22T08:53:45;37.00;;;12.95;;
37087;SDS011;23002;52.676;6.432;2023-11-22T08:56:12;38.85;;;13.50;;
37087;SDS011;23002;52.676;6.432;2023-11-22T08:58:40;39.85;;;13.95;;
37087;SDS011;23002;52.676;6.432;2023-11-22T09:01:07;32.55;;;13.43;;
37087;SDS011;23002;52.676;6.432;2023-11-22T09:03:34;38.15;;;12.75;;
37087;SDS011;23002;52.676;6.432;2023-11-22T09:06:02;33.40;;;13.82;;
37087;SDS011;23002;52.676;6.432;2023-11-22T09:08:30;32.50;;;12.40;;
37087;SDS011;23002;52.676;6.432;2023-11-22T09:10:57;38.85;;;13.82;;
37087;SDS011;23002;52.676;6.432;2023-11-22T09:13:24;33.50;;;13.45;;
37087;SDS011;23002;52.676;6.432;2023-11-22T09:15:51;40.47;;;13.50;;
37087;SDS011;23002;52.676;6.432;2023-11-22T09:18:18;40.50;;;14.05;;
37087;SDS011;23002;52.676;6.432;2023-11-22T09:20:46;31.70;;;12.07;;
37087;SDS011;23002;52.676;6.432;2023-11-22T09:23:14;37.00;;;12.88;;
37087;SDS011;23002;52.676;6.432;2023-11-22T09:25:43;32.70;;;13.07;;
37087;SDS011;23002;52.676;6.432;2023-11-22T09:28:10;35.40;;;13.20;;
37087;SDS011;23002;52.676;6.432;2023-11-22T09:30:37;31.02;;;13.35;;
37087;SDS011;23002;52.676;6.432;2023-11-22T09:33:11;30.98;;;12.23;;
37087;SDS011;23002;52.676;6.432;2023-11-22T09:35:42;35.20;;;12.05;;
37087;SDS011;23002;52.676;6.432;2023-11-22T09:38:10;34.13;;;12.77;;
37087;SDS011;23002;52.676;6.432;2023-11-22T09:40:42;32.88;;;12.68;;
37087;SDS011;23002;52.676;6.432;2023-11-22T09:43:10;28.23;;;12.00;;
37087;SDS011;23002;52.676;6.432;2023-11-22T09:45:37;28.90;;;13.02;;
37087;SDS011;23002;52.676;6.432;2023-11-22T09:48:15;32.38;;;12.52;;
37087;SDS011;23002;52.676;6.432;2023-11-22T09:53:22;31.75;;;12.20;;
37087;SDS011;23002;52.676;6.432;2023-11-22T09:55:49;29.67;;;11.65;;
37087;SDS011;23002;52.676;6.432;2023-11-22T09:58:16;30.65;;;11.80;;
37087;SDS011;23002;52.676;6.432;2023-11-22T10:00:44;30.42;;;12.27;;
37087;SDS011;23002;52.676;6.432;2023-11-22T10:03:11;28.27;;;11.63;;
37087;SDS011;23002;52.676;6.432;2023-11-22T10:05:41;24.60;;;10.35;;
37087;SDS011;23002;52.676;6.432;2023-11-22T10:08:09;26.90;;;12.10;;
37087;SDS011;23002;52.676;6.432;2023-11-22T10:10:36;27.75;;;11.77;;
37087;SDS011;23002;52.676;6.432;2023-11-22T10:13:04;30.27;;;13.52;;
37087;SDS011;23002;52.676;6.432;2023-11-22T10:15:31;29.45;;;12.10;;
37087;SDS011;23002;52.676;6.432;2023-11-22T10:17:59;27.75;;;11.77;;
37087;SDS011;23002;52.676;6.432;2023-11-22T10:20:38;31.65;;;12.70;;
37087;SDS011;23002;52.676;6.432;2023-11-22T10:23:10;25.77;;;12.30;;
37087;SDS011;23002;52.676;6.432;2023-11-22T10:25:43;24.08;;;10.88;;
37087;SDS011;23002;52.676;6.432;2023-11-22T10:28:11;24.85;;;11.38;;
37087;SDS011;23002;52.676;6.432;2023-11-22T10:30:38;24.40;;;11.90;;
37087;SDS011;23002;52.676;6.432;2023-11-22T10:33:10;22.38;;;10.82;;
37087;SDS011;23002;52.676;6.432;2023-11-22T10:35:44;24.13;;;11.32;;
37087;SDS011;23002;52.676;6.432;2023-11-22T10:38:17;24.70;;;10.52;;
37087;SDS011;23002;52.676;6.432;2023-11-22T10:40:45;23.67;;;9.75;;
37087;SDS011;23002;52.676;6.432;2023-11-22T10:43:14;25.85;;;11.15;;
37087;SDS011;23002;52.676;6.432;2023-11-22T10:45:42;24.50;;;11.00;;
37087;SDS011;23002;52.676;6.432;2023-11-22T10:48:15;26.08;;;10.75;;
37087;SDS011;23002;52.676;6.432;2023-11-22T10:50:46;24.70;;;11.25;;
37087;SDS011;23002;52.676;6.432;2023-11-22T10:53:20;22.10;;;10.15;;
37087;SDS011;23002;52.676;6.432;2023-11-22T10:55:52;25.85;;;11.20;;
37087;SDS011;23002;52.676;6.432;2023-11-22T10:58:20;21.75;;;10.68;;
37087;SDS011;23002;52.676;6.432;2023-11-22T11:00:47;26.27;;;10.90;;
37087;SDS011;23002;52.676;6.432;2023-11-22T11:03:17;22.95;;;10.65;;
37087;SDS011;23002;52.676;6.432;2023-11-22T11:05:57;21.65;;;10.05;;
37087;SDS011;23002;52.676;6.432;2023-11-22T11:10:53;23.52;;;9.23;;
37087;SDS011;23002;52.676;6.432;2023-11-22T11:13:22;24.25;;;10.80;;
37087;SDS011;23002;52.676;6.432;2023-11-22T11:15:52;21.92;;;9.25;;
37087;SDS011;23002;52.676;6.432;2023-11-22T11:18:20;21.65;;;9.88;;
37087;SDS011;23002;52.676;6.432;2023-11-22T11:20:51;19.63;;;9.20;;
37087;SDS011;23002;52.676;6.432;2023-11-22T11:23:19;19.48;;;9.48;;
37087;SDS011;23002;52.676;6.432;2023-11-22T11:25:58;24.30;;;10.23;;
37087;SDS011;23002;52.676;6.432;2023-11-22T11:28:26;24.80;;;9.63;;
37087;SDS011;23002;52.676;6.432;2023-11-22T11:30:54;20.00;;;8.88;;
37087;SDS011;23002;52.676;6.432;2023-11-22T11:34:07;18.30;;;8.00;;
37087;SDS011;23002;52.676;6.432;2023-11-22T11:36:08;20.00;;;8.68;;
37087;SDS011;23002;52.676;6.432;2023-11-22T11:38:36;20.63;;;9.13;;
37087;SDS011;23002;52.676;6.432;2023-11-22T11:41:10;25.27;;;9.45;;
37087;SDS011;23002;52.676;6.432;2023-11-22T11:43:44;19.52;;;9.23;;
37087;SDS011;23002;52.676;6.432;2023-11-22T11:46:12;19.95;;;9.10;;
37087;SDS011;23002;52.676;6.432;2023-11-22T11:48:49;18.00;;;8.18;;
37087;SDS011;23002;52.676;6.432;2023-11-22T11:51:17;17.70;;;8.52;;
37087;SDS011;23002;52.676;6.432;2023-11-22T11:53:45;14.88;;;8.07;;
37087;SDS011;23002;52.676;6.432;2023-11-22T11:56:13;16.80;;;8.43;;
37087;SDS011;23002;52.676;6.432;2023-11-22T11:58:47;19.50;;;8.18;;
37087;SDS011;23002;52.676;6.432;2023-11-22T12:01:16;15.57;;;7.38;;
37087;SDS011;23002;52.676;6.432;2023-11-22T12:03:43;22.45;;;9.30;;
37087;SDS011;23002;52.676;6.432;2023-11-22T12:06:18;18.95;;;8.30;;
37087;SDS011;23002;52.676;6.432;2023-11-22T12:08:47;16.13;;;8.25;;
37087;SDS011;23002;52.676;6.432;2023-11-22T12:11:14;17.77;;;8.60;;
37087;SDS011;23002;52.676;6.432;2023-11-22T12:13:44;16.17;;;8.20;;
37087;SDS011;23002;52.676;6.432;2023-11-22T12:16:14;17.23;;;8.30;;
37087;SDS011;23002;52.676;6.432;2023-11-22T12:18:45;17.52;;;8.85;;
37087;SDS011;23002;52.676;6.432;2023-11-22T12:21:15;17.30;;;7.97;;
37087;SDS011;23002;52.676;6.432;2023-11-22T12:23:42;18.45;;;8.63;;
37087;SDS011;23002;52.676;6.432;2023-11-22T12:26:13;20.83;;;9.55;;
37087;SDS011;23002;52.676;6.432;2023-11-22T12:28:41;16.50;;;8.10;;
37087;SDS011;23002;52.676;6.432;2023-11-22T12:31:19;17.30;;;7.53;;
37087;SDS011;23002;52.676;6.432;2023-11-22T12:33:47;14.88;;;7.95;;
37087;SDS011;23002;52.676;6.432;2023-11-22T12:36:17;13.65;;;7.43;;
37087;SDS011;23002;52.676;6.432;2023-11-22T12:38:45;13.35;;;6.90;;
37087;SDS011;23002;52.676;6.432;2023-11-22T12:41:14;13.27;;;6.85;;
37087;SDS011;23002;52.676;6.432;2023-11-22T12:43:41;13.80;;;6.10;;
37087;SDS011;23002;52.676;6.432;2023-11-22T12:46:16;10.15;;;5.85;;
37087;SDS011;23002;52.676;6.432;2023-11-22T12:48:44;12.30;;;6.05;;
37087;SDS011;23002;52.676;6.432;2023-11-22T12:51:15;12.77;;;5.35;;
37087;SDS011;23002;52.676;6.432;2023-11-22T12:53:52;9.95;;;5.50;;
37087;SDS011;23002;52.676;6.432;2023-11-22T12:56:20;10.15;;;5.93;;
37087;SDS011;23002;52.676;6.432;2023-11-22T12:58:47;11.75;;;5.60;;
37087;SDS011;23002;52.676;6.432;2023-11-22T13:01:14;9.38;;;4.65;;
37087;SDS011;23002;52.676;6.432;2023-11-22T13:03:42;11.00;;;5.65;;
37087;SDS011;23002;52.676;6.432;2023-11-22T13:06:09;9.65;;;5.03;;
37087;SDS011;23002;52.676;6.432;2023-11-22T13:08:36;10.02;;;5.55;;
37087;SDS011;23002;52.676;6.432;2023-11-22T13:11:04;8.73;;;5.25;;
37087;SDS011;23002;52.676;6.432;2023-11-22T13:13:31;9.88;;;4.65;;
37087;SDS011;23002;52.676;6.432;2023-11-22T13:16:01;8.27;;;4.50;;
37087;SDS011;23002;52.676;6.432;2023-11-22T13:18:29;7.97;;;4.43;;
37087;SDS011;23002;52.676;6.432;2023-11-22T13:20:57;7.93;;;4.35;;
37087;SDS011;23002;52.676;6.432;2023-11-22T13:23:24;9.32;;;4.45;;
37087;SDS011;23002;52.676;6.432;2023-11-22T13:25:51;9.98;;;4.65;;
37087;SDS011;23002;52.676;6.432;2023-11-22T13:28:18;8.38;;;4.45;;
37087;SDS011;23002;52.676;6.432;2023-11-22T13:30:46;8.93;;;4.07;;
37087;SDS011;23002;52.676;6.432;2023-11-22T13:33:15;7.07;;;4.20;;
37087;SDS011;23002;52.676;6.432;2023-11-22T13:35:42;8.40;;;4.22;;
37087;SDS011;23002;52.676;6.432;2023-11-22T13:38:10;8.93;;;4.78;;
37087;SDS011;23002;52.676;6.432;2023-11-22T13:40:39;7.13;;;4.13;;
37087;SDS011;23002;52.676;6.432;2023-11-22T13:43:06;7.32;;;4.22;;
37087;SDS011;23002;52.676;6.432;2023-11-22T13:45:37;9.27;;;4.93;;
37087;SDS011;23002;52.676;6.432;2023-11-22T13:48:07;7.70;;;4.47;;
37087;SDS011;23002;52.676;6.432;2023-11-22T13:50:36;8.23;;;4.40;;
37087;SDS011;23002;52.676;6.432;2023-11-22T13:53:03;10.45;;;4.50;;
37087;SDS011;23002;52.676;6.432;2023-11-22T13:55:30;9.23;;;4.57;;
37087;SDS011;23002;52.676;6.432;2023-11-22T13:57:59;12.25;;;5.28;;
37087;SDS011;23002;52.676;6.432;2023-11-22T14:00:27;11.07;;;4.55;;
37087;SDS011;23002;52.676;6.432;2023-11-22T14:03:00;11.57;;;4.47;;
37087;SDS011;23002;52.676;6.432;2023-11-22T14:05:34;7.82;;;4.68;;
37087;SDS011;23002;52.676;6.432;2023-11-22T14:08:03;7.55;;;4.55;;
37087;SDS011;23002;52.676;6.432;2023-11-22T14:10:32;11.45;;;5.45;;
37087;SDS011;23002;52.676;6.432;2023-11-22T14:12:59;11.48;;;5.13;;
37087;SDS011;23002;52.676;6.432;2023-11-22T14:15:28;9.60;;;4.72;;
37087;SDS011;23002;52.676;6.432;2023-11-22T14:17:55;8.70;;;4.88;;
37087;SDS011;23002;52.676;6.432;2023-11-22T14:20:22;9.65;;;4.90;;
37087;SDS011;23002;52.676;6.432;2023-11-22T14:22:50;8.90;;;5.00;;
37087;SDS011;23002;52.676;6.432;2023-11-22T14:25:19;9.05;;;4.53;;
37087;SDS011;23002;52.676;6.432;2023-11-22T14:27:47;11.43;;;5.43;;
37087;SDS011;23002;52.676;6.432;2023-11-22T14:30:21;12.05;;;5.35;;
37087;SDS011;23002;52.676;6.432;2023-11-22T14:32:49;10.82;;;4.90;;
37087;SDS011;23002;52.676;6.432;2023-11-22T14:35:17;10.80;;;5.75;;
37087;SDS011;23002;52.676;6.432;2023-11-22T14:37:45;10.30;;;5.43;;
37087;SDS011;23002;52.676;6.432;2023-11-22T14:40:13;9.43;;;5.00;;
37087;SDS011;23002;52.676;6.432;2023-11-22T14:42:41;13.02;;;6.18;;